Altair — 9LC2000 — position and weather

sailwx.info

Track history (hours):
 
Tides and Currents Weather Stations Pressure Air Temp Water Temp Dewpoint Dewpoint Depression Visibility Wind Speed Wind Dir Waves Ship Positions

Altair

Last reported at 2015-Jun-26 16:15 UTC. Time now 2015-Jul-01 11:59 UTC.
Position N 44°01' E 034°54'.

Length 108 m; draft 3.8 m.

Type: Cargo ship. MMSI: 667021000.

Date/timePositionNaut miles runAvg speedWind from/ knotsBaromVisibWave heightAir tempDewpointWater temp
2015-Jun-26 16:15N 44°01' E 034°54'21 7.3
2015-Jun-26 13:21N 43°52' E 034°27'6 7.6
2015-Jun-26 12:33N 43°49' E 034°20'291 7.1
2015-Jun-24 19:24N 40°59' E 028°60'5 5.7
2015-Jun-24 18:31N 40°54' E 028°59'7 2.3
2015-Jun-24 15:29N 40°48' E 028°55'1 0.6
2015-Jun-24 14:31N 40°49' E 028°55'1 0.6
2015-Jun-24 13:27N 40°49' E 028°55'1 0.7
2015-Jun-24 12:07N 40°50' E 028°55'1 0.6
2015-Jun-24 11:14N 40°51' E 028°55'252 4.9
2015-Jun-22 07:17N 37°05' E 026°31'  
Track history (hours):
 
Tides and Currents Weather Stations Pressure Air Temp Water Temp Dewpoint Dewpoint Depression Visibility Wind Speed Wind Dir Waves Ship Positions

Altair

Last reported at 2015-Jun-26 16:15 UTC. Time now 2015-Jul-01 11:59 UTC.
Position N 44°01' E 034°54'.

Length 108 m; draft 3.8 m.

Type: Cargo ship. MMSI: 667021000.

Date/timePositionNaut miles runAvg speedWind from/ knotsBaromVisibWave heightAir tempDewpointWater temp
2015-Jun-26 16:15N 44°01' E 034°54'21 7.3
2015-Jun-26 13:21N 43°52' E 034°27'6 7.6
2015-Jun-26 12:33N 43°49' E 034°20'291 7.1
2015-Jun-24 19:24N 40°59' E 028°60'5 5.7
2015-Jun-24 18:31N 40°54' E 028°59'7 2.3
2015-Jun-24 15:29N 40°48' E 028°55'1 0.6
2015-Jun-24 14:31N 40°49' E 028°55'1 0.6
2015-Jun-24 13:27N 40°49' E 028°55'1 0.7
2015-Jun-24 12:07N 40°50' E 028°55'1 0.6
2015-Jun-24 11:14N 40°51' E 028°55'252 4.9
2015-Jun-22 07:17N 37°05' E 026°31'  

Dump ship's entire track history